Atmautluak, Alaska
Current Conditions -  °F | °C
As of 9:53 PM on Saturday 22 Nov 2014 (Local Time) from PABE Reporting Station
Broken Clouds Broken Clouds  
Wind Chill: -3°   Ceiling: 11000
Heat Index: 13°   Visibility: 10mi
Dew Point:   Wind: 15mph
Humidity: 81%   Direction: 20°NNE
Pressure: 29.19"   Gusts: NA
Location:  60.7494°N, 161.727°W
Report Text: PABE 230653Z 02013KT 10SM BKN110 M11/M13 A2919 RMK AO2 SLP886 T11061133
Loading
Personal Weather Stations






























Interactive Weather Map New forecast layout! Learn more

10-Day Weather Forecast

Advertisements
Track Severe Weather on mobile